Map

Track Data

SID SEASON NUMBER BASIN SUBBASIN NAME ISO_TIME NATURE LAT LON WMO_WIND WMO_PRES WMO_AGENCY TRACK_TYPE DIST2LAND LANDFALL IFLAG USA_AGENCY USA_ATCF_ID USA_LAT USA_LON USA_RECORD USA_STATUS USA_WIND USA_PRES USA_SSHS USA_R34_NE USA_R34_SE USA_R34_SW USA_R34_NW USA_R50_NE USA_R50_SE USA_R50_SW USA_R50_NW USA_R64_NE USA_R64_SE USA_R64_SW USA_R64_NW USA_POCI USA_ROCI USA_RMW USA_EYE TOKYO_LAT TOKYO_LON TOKYO_GRADE TOKYO_WIND TOKYO_PRES TOKYO_R50_DIR TOKYO_R50_LONG TOKYO_R50_SHORT TOKYO_R30_DIR TOKYO_R30_LONG TOKYO_R30_SHORT TOKYO_LAND CMA_LAT CMA_LON CMA_CAT CMA_WIND CMA_PRES HKO_LAT HKO_LON HKO_CAT HKO_WIND HKO_PRES NEWDELHI_LAT NEWDELHI_LON NEWDELHI_GRADE NEWDELHI_WIND NEWDELHI_PRES NEWDELHI_CI NEWDELHI_DP NEWDELHI_POCI REUNION_LAT REUNION_LON REUNION_TYPE REUNION_WIND REUNION_PRES REUNION_TNUM REUNION_CI REUNION_RMW REUNION_R34_NE REUNION_R34_SE REUNION_R34_SW REUNION_R34_NW REUNION_R50_NE REUNION_R50_SE REUNION_R50_SW REUNION_R50_NW REUNION_R64_NE REUNION_R64_SE REUNION_R64_SW REUNION_R64_NW BOM_LAT BOM_LON BOM_TYPE BOM_WIND BOM_PRES BOM_TNUM BOM_CI BOM_RMW BOM_R34_NE BOM_R34_SE BOM_R34_SW BOM_R34_NW BOM_R50_NE BOM_R50_SE BOM_R50_SW BOM_R50_NW BOM_R64_NE BOM_R64_SE BOM_R64_SW BOM_R64_NW BOM_ROCI BOM_POCI BOM_EYE BOM_POS_METHOD BOM_PRES_METHOD NADI_LAT NADI_LON NADI_CAT NADI_WIND NADI_PRES WELLINGTON_LAT WELLINGTON_LON WELLINGTON_WIND WELLINGTON_PRES DS824_LAT DS824_LON DS824_STAGE DS824_WIND DS824_PRES TD9636_LAT TD9636_LON TD9636_STAGE TD9636_WIND TD9636_PRES TD9635_LAT TD9635_LON TD9635_WIND TD9635_PRES TD9635_ROCI NEUMANN_LAT NEUMANN_LON NEUMANN_CLASS NEUMANN_WIND NEUMANN_PRES MLC_LAT MLC_LON MLC_CLASS MLC_WIND MLC_PRES USA_GUST BOM_GUST BOM_GUST_PER REUNION_GUST REUNION_GUST_PER USA_SEAHGT USA_SEARAD_NE USA_SEARAD_SE USA_SEARAD_SW USA_SEARAD_NW STORM_SPEED STORM_DIR
1967343S25155 1968 142 SP EA NOT_NAMED 1967-12-09 11:00:00 NR -24.8000 154.500 main 113 113 __________O___ -1 -24.8000 154.500 1 8 136
1967343S25155 1968 142 SP EA NOT_NAMED 1967-12-09 12:00:00 TS -24.8991 154.607 main 121 121 O_________P___ jtwc_sh SH041968 -24.9000 154.600 -1 -24.8981 154.613 1 9 134
1967343S25155 1968 142 SP EA NOT_NAMED 1967-12-09 15:00:00 TS -25.1999 154.957 main 162 162 P_________P___ SH041968 -25.2077 154.965 -1 -25.1894 154.947 1 8 134
1967343S25155 1968 142 SP EA NOT_NAMED 1967-12-09 17:00:00 TS -25.3496 155.118 1003 bom main 174 174 P_____O___P___ SH041968 -25.4052 155.193 -1 -24.9000 154.500 1003 -25.3785 155.161 1 6 136
1967343S25155 1968 142 SP EA NOT_NAMED 1967-12-09 18:00:00 TS -25.4057 155.174 main 186 186 O_____P__OP___ jtwc_sh SH041968 -25.5000 155.300 -1 -25.0510 154.733 1003 -25.1000 154.700 TC 25 1003 -25.4708 155.262 1 7 135
1967343S25155 1968 142 SP EA NOT_NAMED 1967-12-09 20:00:00 TS -25.6001 155.393 1003 bom main 211 211 P_____O__PP___ SH041968 -25.6799 155.493 -1 -25.4000 155.200 1003 -25.4818 155.161 TC 25 1002 -25.6497 155.454 1 9 135
1967343S25155 1968 142 SP EA NOT_NAMED 1967-12-09 21:00:00 TS -25.7106 155.508 main 224 224 P_____P__PP___ SH041968 -25.7649 155.580 -1 -25.6138 155.429 1002 -25.6610 155.378 TC 25 1002 -25.7358 155.542 1 9 137
1967343S25155 1968 142 SP EA NOT_NAMED 1967-12-09 23:00:00 TS -25.9449 155.744 1002 bom main 251 251 P_____O__PO___ SH041968 -25.9250 155.733 -1 -26.0000 155.800 1002 -25.9745 155.754 TC 25 1002 -25.9000 155.700 2 9 138
1967343S25155 1968 142 SP EA NOT_NAMED 1967-12-10 00:00:00 TS -26.0352 155.832 main 265 265 O_____P__OP___ jtwc_sh SH041968 -26.0000 155.800 -1 -26.0981 155.893 1001 -26.1000 155.900 TC 25 1002 -25.9777 155.769 2 6 139
1967343S25155 1968 142 SP EA NOT_NAMED 1967-12-10 02:00:00 TS -26.1775 155.962 999 bom main 289 289 P_____O__PP___ SH041968 -26.1411 155.911 -1 -26.2000 156.000 999 -26.2803 156.097 TC 28 1000 -26.1251 155.892 2 5 140
1967343S25155 1968 142 SP EA NOT_NAMED 1967-12-10 03:00:00 TS -26.2442 156.025 main 289 288 P_____P__PP___ SH041968 -26.2074 155.958 -1 -26.2667 156.103 998 -26.3445 156.161 TC 30 1000 -26.1951 155.947 2 5 140
1967343S25155 1968 142 SP EA NOT_NAMED 1967-12-10 05:00:00 TS -26.3700 156.141 998 bom main 298 298 P_____O__PP___ SH041968 -26.3359 156.050 -1 -26.4000 156.300 998 -26.4489 156.255 TC 33 998 -26.3292 156.051 2 5 141
1967343S25155 1968 142 SP EA NOT_NAMED 1967-12-10 06:00:00 TS -26.4321 156.189 main 307 304 O_____P__OP___ jtwc_sh SH041968 -26.4000 156.100 -1 -26.4666 156.344 997 -26.5000 156.300 TC 35 998 -26.3937 156.103 2 5 145
1967343S25155 1968 142 SP EA NOT_NAMED 1967-12-10 08:00:00 TS -26.5637 156.295 997 bom main 312 312 P_____O__PP___ SH041968 -26.5333 156.215 -1 -26.6000 156.400 997 4 -26.6333 156.433 TC 33 998 -26.5188 156.210 2 5 143
1967343S25155 1968 142 SP EA NOT_NAMED 1967-12-10 09:00:00 TS -26.6282 156.357 main 322 319 P_____P__PP___ SH041968 -26.5999 156.278 -1 -26.6612 156.459 997 -26.7000 156.500 TC 32 998 -26.5798 156.268 2 5 138
1967343S25155 1968 142 SP EA NOT_NAMED 1967-12-10 11:00:00 TS -26.7600 156.494 999 bom main 325 325 P_____O__PO___ SH041968 -26.7333 156.419 -1 -26.8000 156.600 999 -26.8333 156.633 TC 30 998 -26.7000 156.400 1 6 138
1967343S25155 1968 142 SP EA NOT_NAMED 1967-12-10 12:00:00 TS -26.8382 156.570 main 334 329 O_____P__OP___ jtwc_sh SH041968 -26.8000 156.500 -1 -26.8975 156.667 999 -26.9000 156.700 TC 30 999 -26.7937 156.483 1 6 139
1967343S25155 1968 142 SP EA NOT_NAMED 1967-12-10 14:00:00 TS -27.0041 156.731 999 bom main 333 333 P_____O__PP___ SH041968 -26.9442 156.684 -1 -27.1000 156.800 999 -27.0441 156.823 TC 30 999 -26.9879 156.662 1 7 138
1967343S25155 1968 142 SP EA NOT_NAMED 1967-12-10 15:00:00 TS -27.0815 156.815 main 337 337 P_____P__PP___ SH041968 -27.0150 156.785 -1 -27.1800 156.861 999 -27.1149 156.885 TC 30 999 -27.0826 156.758 1 6 132
1967343S25155 1968 142 SP EA NOT_NAMED 1967-12-10 17:00:00 TS -27.2174 156.994 1000 bom main 352 352 P_____O__PP___ SH041968 -27.1448 156.995 -1 -27.3000 157.000 1000 -27.2447 157.022 TC 30 999 -27.2526 156.959 1 6 128
1967343S25155 1968 142 SP EA NOT_NAMED 1967-12-10 18:00:00 TS -27.2727 157.091 main 358 358 O_____P__OP___ jtwc_sh SH041968 -27.2000 157.100 -1 -27.3412 157.092 1000 -27.3000 157.100 TC 30 1000 -27.3222 157.064 1 6 121
1967343S25155 1968 142 SP EA NOT_NAMED 1967-12-10 20:00:00 TS -27.3798 157.293 1000 bom main 374 374 P_____O__PP___ SH041968 -27.3422 157.300 -1 -27.4000 157.300 1000 -27.3988 157.290 TC 30 1000 -27.4160 157.277 1 6 119
1967343S25155 1968 142 SP EA NOT_NAMED 1967-12-10 21:00:00 TS -27.4211 157.396 main 383 383 P_____P__PP___ SH041968 -27.3974 157.400 -1 -27.4388 157.405 1000 -27.4376 157.392 TC 30 1000 -27.4344 157.385 1 6 105
1967343S25155 1968 142 SP EA NOT_NAMED 1967-12-10 23:00:00 TS -27.4517 157.600 1000 bom main 400 400 P_____O__PO___ SH041968 -27.4347 157.600 -1 -27.5000 157.600 1000 -27.4891 157.600 TC 30 1000 -27.4000 157.600 1 5 92
1967343S25155 1968 142 SP EA NOT_NAMED 1967-12-11 00:00:00 TS -27.4292 157.700 main 412 412 O_____P__OP___ jtwc_sh SH041968 -27.4000 157.700 -1 -27.5133 157.669 999 -27.5000 157.700 TC 30 1000 -27.3327 157.731 1 6 62
1967343S25155 1968 142 SP EA NOT_NAMED 1967-12-11 02:00:00 TS -27.3129 157.894 998 bom main 434 434 P_____O__PP___ SH041968 -27.2031 157.900 -1 -27.5000 157.800 998 -27.5337 157.869 TC 30 1000 -27.1244 158.002 1 7 52
1967343S25155 1968 142 SP EA NOT_NAMED 1967-12-11 03:00:00 TS -27.2211 157.995 main 446 446 P_____P__PP___ SH041968 -27.0549 158.000 -1 -27.4746 157.887 998 -27.5324 157.950 TC 30 1000 -26.9888 158.136 1 9 40
1967343S25155 1968 142 SP EA NOT_NAMED 1967-12-11 05:00:00 TS -26.9860 158.200 1000 bom main 472 472 P_____O__PP___ SH041968 -26.6959 158.200 -1 -27.4000 158.100 1000 -27.4701 158.113 TC 30 1000 -26.6678 158.387 1 9 37
1967343S25155 1968 142 SP EA NOT_NAMED 1967-12-11 06:00:00 TS -26.8563 158.306 main 485 485 O_____P__OP___ jtwc_sh SH041968 -26.5000 158.300 -1 -27.3939 158.231 1000 -27.4000 158.200 TC 30 1000 -26.4878 158.498 1 10 36
1967343S25155 1968 142 SP EA NOT_NAMED 1967-12-11 08:00:00 TS -26.5659 158.545 1000 bom main 515 515 P_____O__PP___ SH041968 -26.1184 158.555 -1 -27.3000 158.500 1000 -27.1905 158.436 TC 30 1000 -26.1022 158.677 1 11 33
1967343S25155 1968 142 SP EA NOT_NAMED 1967-12-11 09:00:00 TS -26.3828 158.653 main 542 542 P_____P__PP___ SH041968 -25.9151 158.676 -1 -27.1341 158.619 1000 -27.0477 158.554 TC 30 1000 -25.9019 158.741 1 13 22
1967343S25155 1968 142 SP EA NOT_NAMED 1967-12-11 11:00:00 TS -25.9808 158.812 1000 bom main 552 549 P_____O__PO___ SH041968 -25.5022 158.858 -1 -26.7000 158.800 1000 -26.6996 158.744 TC 30 1000 -25.5000 158.800 1 12 16
1967343S25155 1968 142 SP EA NOT_NAMED 1967-12-11 12:00:00 TS -25.7890 158.850 main 559 544 O_____P__OP___ jtwc_sh SH041968 -25.3000 158.900 -1 -26.5417 158.860 1000 -26.5000 158.800 TC 30 1000 -25.3032 158.792 1 11 1
1967343S25155 1968 142 SP EA NOT_NAMED 1967-12-11 14:00:00 TS -25.4104 158.838 1002 bom main 544 544 P_____O__PP___ SH041968 -24.9161 158.864 -1 -26.2000 158.900 1002 -26.0995 158.857 TC 30 1000 -24.9201 158.705 1 11 354
1967343S25155 1968 142 SP EA NOT_NAMED 1967-12-11 15:00:00 TS -25.2609 158.795 main 544 533 P_____P__PP___ SH041968 -24.7326 158.799 -1 -25.9678 158.904 1001 -25.8743 158.844 TC 30 1000 -24.7331 158.631 1 11 341
1967343S25155 1968 142 SP EA NOT_NAMED 1967-12-11 17:00:00 TS -24.8792 158.640 1001 bom main 523 515 P_____O__PP___ SH041968 -24.3759 158.609 -1 -25.4000 158.800 1001 -25.3746 158.718 TC 30 1000 -24.3664 158.433 1 12 336
1967343S25155 1968 142 SP EA NOT_NAMED 1967-12-11 18:00:00 TS -24.7053 158.525 main 515 491 O_____P__OP___ jtwc_sh SH041968 -24.2000 158.500 -1 -25.0825 158.676 1001 -25.1000 158.600 TC 30 1001 -24.1860 158.313 1 14 327
1967343S25155 1968 142 SP EA NOT_NAMED 1967-12-11 20:00:00 TS -24.2825 158.213 1003 bom main 491 485 ______O__PP___ SH041968 -1 -24.4000 158.300 1003 -24.5047 158.253 TC 28 1001 -23.8295 158.044 1 17 327
1967343S25155 1968 142 SP EA NOT_NAMED 1967-12-11 21:00:00 TS -24.0081 158.029 main 478 457 ______P__PP___ SH041968 -1 -24.0503 158.088 1003 -24.1887 158.037 TC 27 1002 -23.6526 157.899 1 21 326
1967343S25155 1968 142 SP EA NOT_NAMED 1967-12-11 23:00:00 TS -23.4239 157.587 1003 bom main 461 452 ______O__PO___ SH041968 -1 -23.4000 157.600 1003 -23.5337 157.553 TC 25 1002 -23.3000 157.600 1 22 322
1967343S25155 1968 142 SP EA NOT_NAMED 1967-12-12 00:00:00 TS -23.1588 157.316 main 443 426 ______P__O____ -1 -23.1485 157.320 1003 -23.2000 157.300 TC 25 1003 1 21 315
1967343S25155 1968 142 SP EA NOT_NAMED 1967-12-12 02:00:00 NR -22.7000 156.800 1003 bom main 426 422 ______O_______ -1 -22.7000 156.800 1003 TC 1 19 318
1967343S25155 1968 142 SP EA NOT_NAMED 1967-12-12 03:00:00 NR -22.4505 156.625 main 422 422 ______P_______ -1 -22.4505 156.625 1003 TC 1 18 335
1967343S25155 1968 142 SP EA NOT_NAMED 1967-12-12 05:00:00 NR -21.9000 156.400 1003 bom main 452 ______O_______ -1 -21.9000 156.400 1003 TC 1 18 339

Digital Typhoon Data and Search

About IBTrACS Database

This database is a web-friendly format of International Best Track Archive for Climate Stewardship (IBTrACS), a global best track data archive curated by NOAA dating back to 1842.

Updated: 2021-10-25